Time;durP1;ratioP1;P1;durP2;ratioP2;P2;SDS_P1;SDS_P2;PMS_P1;PMS_P2;Temp;Humidity;BMP_temperature;BMP_pressure;BME280_temperature;BME280_humidity;BME280_pressure;Samples;Min_cycle;Max_cycle;Signal;HPM_P1;HPM_P2
2022/01/06 00:00:43;;;;;;;16.63;2.33;;;3.90;99.90;;;;;;5036542;28;20043;-75
2022/01/06 00:03:08;;;;;;;15.05;2.60;;;3.80;99.90;;;;;;5051732;28;20071;-75
2022/01/06 00:05:34;;;;;;;13.57;2.67;;;3.80;99.90;;;;;;5050666;28;20105;-75
2022/01/06 00:08:01;;;;;;;13.35;2.13;;;3.70;99.90;;;;;;5050597;28;20064;-75
2022/01/06 00:10:28;;;;;;;11.80;2.15;;;3.70;99.90;;;;;;5052439;28;20080;-75
2022/01/06 00:15:36;;;;;;;18.48;3.88;;;3.60;99.90;;;;;;5052816;28;20363;-75
2022/01/06 00:25:53;;;;;;;15.90;2.55;;;3.50;99.90;;;;;;5052997;28;20040;-75
2022/01/06 00:28:19;;;;;;;13.23;2.05;;;3.50;99.90;;;;;;5051459;28;20167;-75
2022/01/06 00:30:45;;;;;;;12.80;2.35;;;3.40;99.90;;;;;;5052296;28;20044;-75
2022/01/06 00:33:11;;;;;;;9.07;2.33;;;3.40;99.90;;;;;;5050839;28;20036;-75
2022/01/06 00:35:37;;;;;;;14.02;2.30;;;3.40;99.90;;;;;;5052198;28;20048;-75
2022/01/06 00:38:06;;;;;;;15.13;2.10;;;3.40;99.90;;;;;;5052347;28;20093;-75
2022/01/06 00:40:32;;;;;;;14.98;2.30;;;3.40;99.90;;;;;;5053314;28;20521;-75
2022/01/06 00:42:58;;;;;;;9.98;2.53;;;3.40;99.90;;;;;;5054724;28;20036;-75
2022/01/06 00:45:23;;;;;;;13.60;1.73;;;3.40;99.90;;;;;;5050694;28;20098;-75
2022/01/06 00:47:49;;;;;;;11.73;2.83;;;3.40;99.90;;;;;;5052012;28;20037;-75
2022/01/06 00:50:14;;;;;;;11.02;1.67;;;3.50;99.90;;;;;;5047952;28;20420;-75
2022/01/06 00:52:40;;;;;;;7.47;1.63;;;3.50;99.90;;;;;;5072156;28;20048;-75
2022/01/06 00:55:06;;;;;;;10.27;1.50;;;3.50;99.90;;;;;;5055866;28;20063;-75
2022/01/06 00:57:31;;;;;;;8.80;1.40;;;3.50;99.90;;;;;;5059052;28;20119;-75
2022/01/06 00:59:57;;;;;;;11.15;1.60;;;3.50;99.90;;;;;;5053925;28;20117;-75
2022/01/06 01:02:23;;;;;;;10.50;2.55;;;3.40;99.90;;;;;;5054801;28;20040;-75
2022/01/06 01:04:48;;;;;;;5.28;1.52;;;3.40;99.90;;;;;;5073283;28;20626;-75
2022/01/06 01:07:15;;;;;;;6.85;1.50;;;3.40;99.90;;;;;;5056576;28;20040;-75
2022/01/06 01:09:40;;;;;;;13.93;1.90;;;3.40;99.90;;;;;;5056505;28;20029;-75
2022/01/06 01:12:07;;;;;;;8.10;1.42;;;3.50;99.90;;;;;;5057884;28;20044;-75
2022/01/06 01:14:44;;;;;;;11.88;1.75;;;3.40;99.90;;;;;;5056004;28;20068;-75
2022/01/06 01:17:15;;;;;;;11.00;1.85;;;3.40;99.90;;;;;;5056345;28;20048;-75
2022/01/06 01:19:41;;;;;;;10.13;1.30;;;3.40;99.90;;;;;;5041880;28;20124;-75
2022/01/06 01:22:08;;;;;;;12.80;2.15;;;3.30;99.90;;;;;;5055921;28;20466;-75
2022/01/06 01:24:34;;;;;;;14.35;2.38;;;3.30;99.90;;;;;;5054741;28;20068;-75
2022/01/06 01:26:59;;;;;;;13.40;2.05;;;3.30;99.90;;;;;;5058964;28;20086;-75
2022/01/06 01:29:27;;;;;;;15.18;2.58;;;3.20;99.90;;;;;;5053752;28;20482;-75
2022/01/06 01:31:55;;;;;;;13.15;2.08;;;3.20;99.90;;;;;;5055628;28;20417;-75
2022/01/06 01:34:27;;;;;;;14.35;1.73;;;3.20;99.90;;;;;;5053024;28;20055;-75
2022/01/06 01:36:55;;;;;;;10.80;1.65;;;3.10;99.90;;;;;;5055422;28;20044;-75
2022/01/06 01:39:22;;;;;;;11.57;2.33;;;3.10;99.90;;;;;;5051149;28;20040;-75
2022/01/06 01:41:49;;;;;;;12.35;2.10;;;3.10;99.90;;;;;;5056711;28;20878;-75
2022/01/06 01:44:18;;;;;;;12.45;1.60;;;3.00;99.90;;;;;;5054677;28;20477;-75
2022/01/06 01:46:57;;;;;;;9.95;1.50;;;3.00;99.90;;;;;;5056805;28;20363;-75
2022/01/06 01:51:48;;;;;;;13.05;2.00;;;2.90;99.90;;;;;;5055446;28;20045;-75
2022/01/06 01:54:13;;;;;;;11.15;1.80;;;2.90;99.90;;;;;;5053472;28;20086;-75
2022/01/06 01:56:39;;;;;;;13.63;2.00;;;2.90;99.90;;;;;;5056752;28;20115;-75
2022/01/06 01:59:05;;;;;;;11.50;1.63;;;2.90;99.90;;;;;;5052254;28;20036;-75
2022/01/06 02:01:30;;;;;;;9.10;1.77;;;2.90;99.90;;;;;;5055153;28;20072;-75
2022/01/06 02:03:56;;;;;;;14.57;2.03;;;3.00;99.90;;;;;;5054545;28;20039;-75
2022/01/06 02:06:22;;;;;;;16.92;2.25;;;3.00;99.90;;;;;;5054971;28;20048;-75
2022/01/06 02:08:48;;;;;;;17.08;2.85;;;3.10;99.90;;;;;;5057512;28;20036;-75
2022/01/06 02:11:14;;;;;;;13.43;1.90;;;3.00;99.90;;;;;;5055005;28;20045;-75
2022/01/06 02:13:50;;;;;;;15.80;2.30;;;3.00;99.90;;;;;;5054385;28;20037;-75
2022/01/06 02:16:24;;;;;;;8.80;2.10;;;3.00;99.90;;;;;;5054850;28;20453;-75
2022/01/06 02:18:51;;;;;;;15.18;2.65;;;3.00;99.90;;;;;;5050961;28;20045;-75
2022/01/06 02:21:17;;;;;;;18.50;2.92;;;3.00;99.90;;;;;;5057866;28;20063;-75
2022/01/06 02:23:43;;;;;;;16.30;2.47;;;3.10;99.90;;;;;;5067063;28;20080;-75
2022/01/06 02:26:08;;;;;;;14.85;2.55;;;3.10;99.90;;;;;;5055364;28;20125;-75
2022/01/06 02:28:34;;;;;;;9.45;1.55;;;3.10;99.90;;;;;;5048104;28;20128;-75
2022/01/06 02:31:00;;;;;;;13.15;1.85;;;3.10;99.90;;;;;;5035222;28;20114;-75
2022/01/06 02:33:27;;;;;;;16.63;2.28;;;3.20;99.90;;;;;;5044467;28;20451;-75
2022/01/06 02:35:54;;;;;;;7.80;1.65;;;3.10;99.90;;;;;;5057297;23;20049;-78
2022/01/06 02:38:20;;;;;;;12.63;2.28;;;3.20;99.90;;;;;;5039917;28;20434;-78
2022/01/06 02:40:46;;;;;;;7.85;1.90;;;3.20;99.90;;;;;;5038233;28;20132;-78
2022/01/06 02:43:15;;;;;;;12.80;2.30;;;3.20;99.90;;;;;;5047595;28;20390;-78
2022/01/06 02:45:40;;;;;;;15.00;2.38;;;3.30;99.90;;;;;;5025790;28;20038;-78
2022/01/06 02:48:08;;;;;;;10.82;1.65;;;3.40;99.90;;;;;;5023867;28;20056;-78
2022/01/06 02:50:37;;;;;;;12.90;1.98;;;3.40;99.90;;;;;;5035298;28;20052;-78
2022/01/06 02:53:03;;;;;;;11.35;2.20;;;3.50;99.90;;;;;;5023731;28;20087;-78
2022/01/06 02:55:29;;;;;;;11.73;1.90;;;3.50;99.90;;;;;;5035149;28;20040;-78
2022/01/06 02:57:54;;;;;;;13.60;2.42;;;3.50;99.90;;;;;;5040086;28;20743;-77
2022/01/06 03:00:20;;;;;;;15.35;1.70;;;3.40;99.90;;;;;;5034817;28;20506;-78
2022/01/06 03:02:46;;;;;;;12.93;2.50;;;3.40;99.90;;;;;;5034547;28;20530;-78
2022/01/06 03:05:13;;;;;;;12.88;2.17;;;3.40;99.90;;;;;;5034617;28;20033;-78
2022/01/06 03:07:39;;;;;;;23.42;2.33;;;3.30;99.90;;;;;;5035293;28;20025;-78
2022/01/06 03:10:09;;;;;;;13.13;2.17;;;3.20;99.90;;;;;;5035271;28;20029;-78
2022/01/06 03:12:44;;;;;;;15.35;2.53;;;3.20;99.90;;;;;;5041123;28;20740;-78
2022/01/06 03:15:18;;;;;;;11.40;2.47;;;3.10;99.90;;;;;;5014754;28;20550;-78
2022/01/06 03:17:49;;;;;;;13.95;2.00;;;3.10;99.90;;;;;;5018093;28;20058;-78
2022/01/06 03:20:17;;;;;;;15.23;2.47;;;3.10;99.90;;;;;;5020407;28;20040;-78
2022/01/06 03:22:43;;;;;;;15.40;2.53;;;3.00;99.90;;;;;;5018425;28;20068;-78
2022/01/06 03:25:10;;;;;;;18.67;2.28;;;2.90;99.90;;;;;;5046152;28;20037;-78
2022/01/06 03:27:36;;;;;;;16.45;2.50;;;2.90;99.90;;;;;;5041534;28;20036;-78
2022/01/06 03:30:07;;;;;;;17.38;2.70;;;2.90;99.90;;;;;;5036979;28;20171;-78
2022/01/06 03:32:33;;;;;;;14.98;2.50;;;2.90;99.90;;;;;;5034311;28;20110;-78
2022/01/06 03:34:58;;;;;;;14.95;2.35;;;2.90;99.90;;;;;;5033386;28;20093;-78
2022/01/06 03:37:24;;;;;;;12.57;2.22;;;2.80;99.90;;;;;;5028384;28;20068;-78
2022/01/06 03:39:50;;;;;;;10.43;2.05;;;2.80;99.90;;;;;;5035362;28;20086;-78
2022/01/06 03:42:15;;;;;;;16.95;2.65;;;2.80;99.90;;;;;;5034054;28;20037;-79
2022/01/06 03:44:41;;;;;;;14.85;2.83;;;2.70;99.90;;;;;;5036475;28;20130;-78
2022/01/06 03:47:07;;;;;;;20.65;2.38;;;2.70;99.90;;;;;;5033961;28;20045;-78
2022/01/06 03:49:32;;;;;;;14.57;2.80;;;2.70;99.90;;;;;;5039052;28;20063;-78
2022/01/06 03:51:58;;;;;;;12.40;2.42;;;2.70;99.90;;;;;;5035432;28;20131;-78
2022/01/06 03:54:23;;;;;;;17.25;2.70;;;2.60;99.90;;;;;;5037322;28;20044;-78
2022/01/06 03:56:49;;;;;;;16.05;3.15;;;2.60;99.90;;;;;;5043450;28;20040;-78
2022/01/06 03:59:17;;;;;;;16.00;2.65;;;2.60;99.90;;;;;;5035037;28;20053;-78
2022/01/06 04:01:44;;;;;;;21.70;3.15;;;2.60;99.90;;;;;;5051431;28;20087;-78
2022/01/06 04:04:10;;;;;;;12.23;2.67;;;2.50;99.90;;;;;;5033280;28;20072;-78
2022/01/06 04:06:36;;;;;;;15.93;2.47;;;2.50;99.90;;;;;;5033827;28;20037;-78
2022/01/06 04:09:03;;;;;;;12.60;2.05;;;2.40;99.90;;;;;;5030204;28;20045;-78
2022/01/06 04:11:29;;;;;;;13.18;2.88;;;2.40;99.90;;;;;;5033434;28;20481;-78
2022/01/06 04:13:54;;;;;;;15.15;2.70;;;2.30;99.90;;;;;;5032631;28;20045;-78
2022/01/06 04:16:20;;;;;;;10.27;2.13;;;2.30;99.90;;;;;;5017448;28;20100;-78
2022/01/06 04:18:46;;;;;;;15.88;2.33;;;2.20;99.90;;;;;;5033327;28;20045;-78
2022/01/06 04:21:12;;;;;;;13.10;2.00;;;2.10;99.90;;;;;;5025840;28;20044;-78
2022/01/06 04:23:37;;;;;;;13.15;2.35;;;2.00;99.90;;;;;;5023331;28;20542;-78
2022/01/06 04:26:03;;;;;;;10.38;2.13;;;2.00;99.90;;;;;;5039226;28;20132;-78
2022/01/06 04:28:29;;;;;;;17.40;2.58;;;1.90;99.90;;;;;;5033441;28;20102;-78
2022/01/06 04:30:55;;;;;;;8.95;2.15;;;1.80;99.90;;;;;;5049481;28;20467;-78
2022/01/06 04:33:20;;;;;;;10.57;1.88;;;1.80;99.90;;;;;;5033079;28;20048;-78
2022/01/06 04:35:46;;;;;;;8.63;1.75;;;1.70;99.90;;;;;;5033483;28;20466;-78
2022/01/06 04:38:12;;;;;;;10.90;2.22;;;1.60;99.90;;;;;;5033634;28;20474;-78
2022/01/06 04:40:37;;;;;;;12.57;2.33;;;1.60;99.90;;;;;;5045433;28;20085;-78
2022/01/06 04:43:04;;;;;;;11.48;1.70;;;1.50;99.90;;;;;;5049865;28;20045;-78
2022/01/06 04:45:30;;;;;;;12.60;2.13;;;1.50;99.90;;;;;;5025088;28;20044;-78
2022/01/06 04:47:55;;;;;;;12.05;1.52;;;1.40;99.90;;;;;;5055220;28;20037;-78
2022/01/06 04:50:21;;;;;;;11.70;1.85;;;1.40;99.90;;;;;;5031878;28;20037;-78
2022/01/06 04:52:46;;;;;;;13.45;1.73;;;1.40;99.90;;;;;;5033030;28;20044;-78
2022/01/06 04:55:12;;;;;;;9.98;1.50;;;1.30;99.90;;;;;;5034050;28;20045;-78
2022/01/06 04:57:38;;;;;;;8.63;1.95;;;1.30;99.90;;;;;;5033698;28;20055;-78
2022/01/06 05:00:05;;;;;;;8.88;1.63;;;1.10;99.90;;;;;;5019504;28;20120;-78
2022/01/06 05:02:31;;;;;;;8.90;1.70;;;1.10;99.90;;;;;;5040591;28;20073;-78
2022/01/06 05:04:57;;;;;;;14.00;2.13;;;1.10;99.90;;;;;;5015528;28;20521;-78
2022/01/06 05:07:22;;;;;;;10.52;1.80;;;1.00;99.90;;;;;;5042009;28;20037;-78
2022/01/06 05:09:48;;;;;;;11.32;2.13;;;1.00;99.90;;;;;;5036090;28;20051;-78
2022/01/06 05:12:13;;;;;;;13.00;1.92;;;1.00;99.90;;;;;;5042176;28;20388;-78
2022/01/06 05:14:39;;;;;;;11.15;2.05;;;0.90;99.90;;;;;;5034200;28;20364;-78
2022/01/06 05:17:05;;;;;;;13.05;2.05;;;0.90;99.90;;;;;;5035047;28;20041;-78
2022/01/06 05:19:31;;;;;;;14.30;2.20;;;0.90;99.90;;;;;;5032644;28;20033;-78
2022/01/06 05:21:58;;;;;;;8.13;1.77;;;0.80;99.90;;;;;;5033633;28;20544;-78
2022/01/06 05:24:24;;;;;;;9.65;1.40;;;0.80;99.90;;;;;;5032677;28;20052;-78
2022/01/06 05:26:50;;;;;;;13.43;2.10;;;0.80;99.90;;;;;;5033516;28;20078;-79
2022/01/06 05:29:16;;;;;;;11.63;1.92;;;0.80;99.90;;;;;;5032921;28;20084;-78
2022/01/06 05:31:41;;;;;;;12.60;3.15;;;0.80;99.90;;;;;;5039735;28;20099;-78
2022/01/06 05:34:07;;;;;;;13.25;2.25;;;0.70;99.90;;;;;;5033524;28;20049;-78
2022/01/06 05:36:34;;;;;;;12.32;2.20;;;0.70;99.90;;;;;;5033495;28;21173;-78
2022/01/06 05:39:00;;;;;;;17.23;2.67;;;0.70;99.90;;;;;;5018161;28;20053;-78
2022/01/06 05:41:26;;;;;;;14.68;2.00;;;0.70;99.90;;;;;;5023457;28;20033;-78
2022/01/06 05:43:52;;;;;;;9.80;1.65;;;0.70;99.90;;;;;;5034884;28;20094;-78
2022/01/06 05:46:19;;;;;;;12.35;2.47;;;0.70;99.90;;;;;;5044218;28;20043;-78
2022/01/06 05:48:45;;;;;;;10.68;2.33;;;0.70;99.90;;;;;;5019232;28;20044;-78
2022/01/06 05:51:11;;;;;;;15.80;1.80;;;0.70;99.90;;;;;;5037319;28;20098;-78
2022/01/06 05:53:37;;;;;;;7.30;1.40;;;0.70;99.90;;;;;;5035558;28;20073;-78
2022/01/06 05:56:03;;;;;;;18.90;1.98;;;0.70;99.90;;;;;;5036719;28;20091;-78
2022/01/06 05:58:28;;;;;;;13.57;1.90;;;0.70;99.90;;;;;;5035562;28;20051;-78
2022/01/06 06:00:54;;;;;;;16.10;1.98;;;0.60;99.90;;;;;;5045129;28;20417;-77
2022/01/06 06:03:19;;;;;;;9.95;1.90;;;0.70;99.90;;;;;;5055977;28;20044;-78
2022/01/06 06:05:45;;;;;;;9.18;1.88;;;0.70;99.90;;;;;;5037692;28;20033;-78
2022/01/06 06:08:11;;;;;;;10.00;1.83;;;0.60;99.90;;;;;;5036069;28;20044;-78
2022/01/06 06:10:37;;;;;;;10.88;1.70;;;0.60;99.90;;;;;;5034652;28;20131;-78
2022/01/06 06:13:03;;;;;;;11.82;2.45;;;0.60;99.90;;;;;;5000082;28;20045;-78
2022/01/06 06:15:34;;;;;;;12.57;1.85;;;0.60;99.90;;;;;;5031364;28;20115;-78
2022/01/06 06:18:04;;;;;;;14.68;1.98;;;0.60;99.90;;;;;;5036226;28;20049;-78
2022/01/06 06:20:30;;;;;;;9.32;1.73;;;0.50;99.90;;;;;;5037366;28;20037;-78
2022/01/06 06:22:57;;;;;;;7.30;1.60;;;0.50;99.90;;;;;;5035292;28;20060;-78
2022/01/06 06:25:22;;;;;;;11.27;1.80;;;0.50;99.90;;;;;;5055546;28;20114;-78
2022/01/06 06:27:48;;;;;;;11.40;1.75;;;0.50;99.90;;;;;;5043320;28;20473;-78
2022/01/06 06:30:13;;;;;;;15.70;2.15;;;0.50;99.90;;;;;;5014887;28;20037;-77
2022/01/06 06:32:39;;;;;;;11.32;2.63;;;0.50;99.90;;;;;;5044653;28;20066;-77
2022/01/06 06:35:05;;;;;;;14.75;2.00;;;0.50;99.90;;;;;;5041759;28;20399;-77
2022/01/06 06:37:32;;;;;;;9.48;2.05;;;0.50;99.90;;;;;;5036869;28;20045;-77
2022/01/06 06:39:57;;;;;;;12.90;2.03;;;0.50;99.90;;;;;;5034854;28;20044;-77
2022/01/06 06:42:24;;;;;;;15.25;2.33;;;0.50;99.90;;;;;;5034755;28;20045;-77
2022/01/06 06:44:50;;;;;;;13.70;2.17;;;0.50;99.90;;;;;;5032682;28;20475;-77
2022/01/06 06:47:15;;;;;;;19.55;3.00;;;0.50;99.90;;;;;;5023795;28;20040;-77
2022/01/06 06:49:41;;;;;;;9.55;2.10;;;0.50;99.90;;;;;;5033629;28;20486;-77
2022/01/06 06:52:07;;;;;;;9.27;1.60;;;0.50;99.90;;;;;;5018095;28;20113;-77
2022/01/06 06:54:32;;;;;;;8.35;2.00;;;0.50;99.90;;;;;;5034499;28;20047;-77
2022/01/06 06:56:58;;;;;;;12.88;2.42;;;0.40;99.90;;;;;;5042654;28;20041;-77
2022/01/06 06:59:23;;;;;;;14.52;2.22;;;0.40;99.90;;;;;;5034821;28;20045;-77
2022/01/06 07:01:49;;;;;;;10.25;2.22;;;0.40;99.90;;;;;;5034948;28;20029;-77
2022/01/06 07:04:14;;;;;;;10.70;1.85;;;0.30;99.90;;;;;;5034479;28;20044;-77
2022/01/06 07:06:40;;;;;;;13.15;1.70;;;0.30;99.90;;;;;;5016844;28;20040;-77
2022/01/06 07:09:05;;;;;;;9.70;1.98;;;0.30;99.90;;;;;;5034159;28;20041;-77
2022/01/06 07:11:32;;;;;;;11.73;2.83;;;0.30;99.90;;;;;;5033030;28;20059;-77
2022/01/06 07:13:57;;;;;;;21.17;3.45;;;0.30;99.90;;;;;;5037128;28;20593;-77
2022/01/06 07:16:23;;;;;;;8.02;2.05;;;0.20;99.90;;;;;;5055233;28;20136;-77
2022/01/06 07:18:48;;;;;;;12.52;2.10;;;0.20;99.90;;;;;;5039231;28;20474;-77
2022/01/06 07:21:14;;;;;;;10.10;2.03;;;0.20;99.90;;;;;;5035946;28;20041;-77
2022/01/06 07:23:39;;;;;;;14.40;2.42;;;0.10;99.90;;;;;;5046920;28;20067;-77
2022/01/06 07:26:05;;;;;;;19.35;3.40;;;0.10;99.90;;;;;;5038103;28;20083;-77
2022/01/06 07:28:30;;;;;;;9.07;1.73;;;0.10;99.90;;;;;;5017445;28;20036;-77
2022/01/06 07:30:56;;;;;;;10.63;1.90;;;0.10;99.90;;;;;;5033095;28;20044;-77
2022/01/06 07:33:22;;;;;;;14.85;2.10;;;0.10;99.90;;;;;;5011596;28;20041;-77
2022/01/06 07:35:47;;;;;;;14.98;2.42;;;0.10;99.90;;;;;;5041449;28;20045;-77
2022/01/06 07:38:13;;;;;;;15.63;2.35;;;0.10;99.90;;;;;;5033839;28;20122;-77
2022/01/06 07:40:38;;;;;;;10.85;2.83;;;0.10;99.90;;;;;;5033305;28;20088;-77
2022/01/06 07:43:04;;;;;;;11.18;2.22;;;0.10;99.90;;;;;;5033870;28;20428;-77
2022/01/06 07:45:30;;;;;;;12.48;2.13;;;0.00;99.90;;;;;;5047207;28;20045;-77
2022/01/06 07:48:01;;;;;;;11.90;2.40;;;0.00;99.90;;;;;;5033113;28;20036;-77
2022/01/06 07:50:29;;;;;;;8.73;3.22;;;0.00;99.90;;;;;;5032470;28;20506;-77
2022/01/06 07:52:56;;;;;;;14.27;3.28;;;0.00;99.90;;;;;;5033839;28;20040;-77
2022/01/06 07:55:21;;;;;;;8.32;2.28;;;0.00;99.90;;;;;;5017231;28;20187;-77
2022/01/06 07:57:47;;;;;;;11.73;2.42;;;0.00;99.90;;;;;;5033107;28;20135;-76
2022/01/06 08:00:14;;;;;;;11.38;2.20;;;0.00;99.90;;;;;;5031059;28;20075;-77
2022/01/06 08:02:39;;;;;;;9.85;2.08;;;0.00;99.90;;;;;;5040328;28;20151;-76
2022/01/06 08:05:09;;;;;;;18.50;3.13;;;0.00;99.90;;;;;;5034103;28;20077;-76
2022/01/06 08:07:35;;;;;;;12.07;2.13;;;0.00;99.90;;;;;;5034896;28;20045;-77
2022/01/06 08:10:00;;;;;;;12.25;2.10;;;0.00;99.90;;;;;;5033466;28;20037;-78
2022/01/06 08:12:26;;;;;;;13.55;3.25;;;0.00;99.90;;;;;;5033880;28;20055;-78
2022/01/06 08:14:51;;;;;;;7.88;2.80;;;0.00;99.90;;;;;;5038875;28;20055;-78
2022/01/06 08:17:17;;;;;;;14.43;3.42;;;0.10;99.90;;;;;;5032654;28;20604;-77
2022/01/06 08:19:43;;;;;;;11.40;3.55;;;0.00;99.90;;;;;;5022651;28;20048;-75
2022/01/06 08:22:09;;;;;;;11.82;2.88;;;0.10;99.90;;;;;;5025880;28;20036;-76
2022/01/06 08:24:35;;;;;;;15.88;3.80;;;0.10;99.90;;;;;;5029542;28;20040;-76
2022/01/06 08:27:03;;;;;;;18.33;3.33;;;0.10;99.90;;;;;;5042700;28;20064;-76
2022/01/06 08:29:28;;;;;;;20.10;3.25;;;0.20;99.90;;;;;;5036578;28;20051;-76
2022/01/06 08:31:54;;;;;;;8.43;3.00;;;0.20;99.90;;;;;;5033152;28;20053;-74
2022/01/06 08:34:19;;;;;;;15.30;4.00;;;0.20;99.90;;;;;;5039193;28;20040;-75
2022/01/06 08:36:52;;;;;;;15.75;4.18;;;0.30;99.90;;;;;;5017743;28;20119;-75
2022/01/06 08:39:18;;;;;;;12.77;3.50;;;0.30;99.90;;;;;;5038855;28;20037;-76
2022/01/06 08:41:43;;;;;;;18.05;3.95;;;0.40;99.90;;;;;;5038724;28;20401;-76
2022/01/06 08:44:09;;;;;;;13.93;3.20;;;0.40;99.90;;;;;;5048960;28;20048;-75
2022/01/06 08:46:34;;;;;;;13.35;2.80;;;0.40;99.90;;;;;;5034373;28;20040;-75
2022/01/06 08:49:00;;;;;;;14.57;3.20;;;0.40;99.90;;;;;;5033645;28;20041;-76
2022/01/06 08:51:25;;;;;;;12.18;2.80;;;0.50;99.90;;;;;;5029750;28;20079;-76
2022/01/06 08:53:51;;;;;;;12.60;3.13;;;0.50;99.90;;;;;;5039096;28;20068;-76
2022/01/06 08:56:16;;;;;;;16.65;3.17;;;0.50;99.90;;;;;;5016660;28;20076;-75
2022/01/06 08:58:42;;;;;;;15.13;2.95;;;0.60;99.90;;;;;;5052189;28;20041;-75
2022/01/06 09:01:08;;;;;;;17.17;2.35;;;0.60;99.90;;;;;;5016450;28;20048;-75
2022/01/06 09:03:34;;;;;;;13.43;2.88;;;0.70;99.90;;;;;;5054959;28;20091;-75
2022/01/06 09:06:00;;;;;;;13.55;2.60;;;0.70;99.90;;;;;;5015148;28;20064;-75
2022/01/06 09:08:25;;;;;;;9.07;2.13;;;0.80;99.90;;;;;;5033258;28;20045;-76
2022/01/06 09:10:51;;;;;;;16.45;3.05;;;0.80;99.90;;;;;;5043487;28;20041;-75
2022/01/06 09:13:16;;;;;;;15.30;2.83;;;0.90;99.90;;;;;;5033904;28;20041;-75
2022/01/06 09:15:42;;;;;;;11.05;2.45;;;0.90;99.90;;;;;;5041351;28;20056;-75
2022/01/06 09:18:07;;;;;;;10.82;2.67;;;1.00;99.90;;;;;;5036260;28;20140;-76
2022/01/06 09:20:33;;;;;;;11.13;2.67;;;1.00;99.90;;;;;;5035929;28;20041;-75
2022/01/06 09:22:59;;;;;;;13.52;2.67;;;1.00;99.90;;;;;;5038320;28;20367;-75
2022/01/06 09:25:25;;;;;;;11.25;2.60;;;1.10;99.90;;;;;;5030574;28;20041;-75
2022/01/06 09:27:50;;;;;;;16.13;2.85;;;1.20;99.90;;;;;;5038042;28;20064;-75
2022/01/06 09:30:17;;;;;;;15.93;4.40;;;1.20;99.90;;;;;;5059186;28;20045;-74
2022/01/06 09:32:42;;;;;;;12.32;3.03;;;1.40;99.90;;;;;;5036520;28;20041;-73
2022/01/06 09:35:08;;;;;;;12.02;3.30;;;1.40;99.90;;;;;;5035657;28;20048;-73
2022/01/06 09:37:34;;;;;;;18.83;4.35;;;1.40;99.90;;;;;;5037140;28;20387;-73
2022/01/06 09:40:00;;;;;;;16.08;3.13;;;1.50;99.90;;;;;;5036253;28;20052;-73
2022/01/06 09:42:26;;;;;;;13.48;3.30;;;1.50;99.90;;;;;;5056035;28;20413;-74
2022/01/06 09:44:53;;;;;;;17.58;3.78;;;1.50;99.90;;;;;;5044041;28;20041;-74
2022/01/06 09:47:19;;;;;;;19.08;3.45;;;1.60;99.90;;;;;;5019850;28;20106;-74
2022/01/06 09:49:45;;;;;;;22.73;4.47;;;1.60;99.90;;;;;;5051097;28;20066;-74
2022/01/06 09:52:12;;;;;;;14.32;3.30;;;1.70;99.90;;;;;;5036936;28;20068;-74
2022/01/06 09:54:39;;;;;;;18.98;3.63;;;1.80;99.90;;;;;;5038749;28;20029;-74
2022/01/06 09:57:05;;;;;;;17.27;3.55;;;1.90;99.90;;;;;;5048807;28;20486;-74
2022/01/06 09:59:32;;;;;;;18.70;3.20;;;1.90;99.90;;;;;;5036884;28;20072;-73
2022/01/06 10:02:00;;;;;;;14.05;2.85;;;2.00;99.90;;;;;;5022000;28;20030;-73
2022/01/06 10:04:29;;;;;;;16.17;3.30;;;2.00;99.90;;;;;;5026829;28;20115;-74
2022/01/06 10:07:01;;;;;;;21.63;6.97;;;2.10;99.90;;;;;;5020824;28;20037;-73
2022/01/06 10:09:27;;;;;;;51.20;18.70;;;2.10;99.90;;;;;;5035379;28;20045;-74
2022/01/06 10:11:58;;;;;;;33.80;12.45;;;2.20;99.90;;;;;;5040909;28;20534;-74
2022/01/06 10:14:31;;;;;;;21.90;6.72;;;2.20;99.90;;;;;;5017307;28;20033;-75
2022/01/06 10:16:58;;;;;;;18.90;5.28;;;2.30;99.90;;;;;;5028641;28;20482;-74
2022/01/06 10:19:25;;;;;;;20.35;4.78;;;2.40;99.90;;;;;;5044743;28;20053;-74
2022/01/06 10:21:57;;;;;;;20.45;5.32;;;2.40;99.90;;;;;;5035400;28;20041;-74
2022/01/06 10:24:24;;;;;;;;;;;2.50;99.90;;;;;;5014114;28;20040;-74
2022/01/06 10:26:54;;;;;;;14.82;3.55;;;2.50;99.90;;;;;;5069749;28;19967;-74
2022/01/06 10:29:19;;;;;;;12.20;3.53;;;2.60;99.90;;;;;;5046927;28;20045;-74
2022/01/06 10:31:45;;;;;;;17.05;3.50;;;2.60;99.90;;;;;;5035195;28;20106;-74
2022/01/06 10:34:11;;;;;;;14.25;3.45;;;2.60;99.90;;;;;;5034536;28;20529;-74
2022/01/06 10:36:38;;;;;;;15.15;3.67;;;2.60;99.90;;;;;;5034665;28;20080;-74
2022/01/06 10:39:08;;;;;;;14.55;3.50;;;2.70;99.90;;;;;;5034736;28;20057;-74
2022/01/06 10:41:34;;;;;;;19.23;3.10;;;2.70;99.90;;;;;;5028904;28;20044;-74
2022/01/06 10:44:00;;;;;;;15.25;2.72;;;2.80;99.90;;;;;;5048153;28;20044;-74
2022/01/06 10:46:56;;;;;;;15.57;3.50;;;2.90;99.90;;;;;;5046678;28;20135;-74
2022/01/06 10:49:22;;;;;;;16.25;3.70;;;2.90;99.90;;;;;;5033159;28;20128;-74
2022/01/06 10:51:49;;;;;;;18.27;3.47;;;2.90;99.90;;;;;;5034527;28;20128;-74
2022/01/06 10:54:24;;;;;;;17.95;3.65;;;3.00;99.90;;;;;;5036738;28;20045;-73
2022/01/06 10:56:59;;;;;;;14.40;3.17;;;3.10;99.90;;;;;;5034805;28;20033;-74
2022/01/06 10:59:30;;;;;;;16.25;3.50;;;3.10;99.90;;;;;;5018074;28;20044;-79
2022/01/06 11:01:56;;;;;;;20.55;4.93;;;3.20;99.90;;;;;;5052885;28;20072;-79
2022/01/06 11:04:22;;;;;;;13.48;3.25;;;3.30;99.90;;;;;;5052320;28;20072;-79
2022/01/06 11:06:49;;;;;;;17.52;3.33;;;3.40;99.90;;;;;;5037885;28;20047;-79
2022/01/06 11:09:15;;;;;;;21.15;4.22;;;3.50;99.90;;;;;;5051267;28;20068;-79
2022/01/06 11:14:28;;;;;;;14.88;3.38;;;3.80;99.90;;;;;;5036389;28;20049;-79
2022/01/06 11:16:54;;;;;;;19.05;3.70;;;3.90;99.90;;;;;;5036210;28;20048;-80
2022/01/06 11:19:23;;;;;;;12.05;3.70;;;4.00;99.90;;;;;;5036855;28;20405;-80
2022/01/06 11:21:50;;;;;;;17.45;3.40;;;4.10;99.90;;;;;;5039188;28;20363;-80
2022/01/06 11:24:23;;;;;;;16.88;3.33;;;4.10;99.90;;;;;;5038714;28;20041;-80
2022/01/06 11:27:06;;;;;;;17.75;3.35;;;4.20;99.90;;;;;;5038018;28;20039;-80
2022/01/06 11:29:41;;;;;;;22.80;3.60;;;4.30;99.90;;;;;;5037927;28;20471;-79
2022/01/06 11:32:21;;;;;;;15.25;3.90;;;4.30;99.90;;;;;;5039937;28;20057;-79
2022/01/06 11:34:50;;;;;;;18.58;4.57;;;4.50;99.90;;;;;;5036484;28;20045;-79
2022/01/06 11:37:16;;;;;;;17.90;3.17;;;4.50;99.90;;;;;;5034022;28;20085;-79
2022/01/06 11:39:43;;;;;;;14.95;3.00;;;4.60;99.90;;;;;;5038396;28;20210;-79
2022/01/06 11:42:27;;;;;;;14.13;3.00;;;4.60;99.90;;;;;;5041027;28;20040;-79
2022/01/06 11:44:55;;;;;;;17.98;3.03;;;4.70;99.90;;;;;;5032570;28;20045;-79
2022/01/06 11:47:29;;;;;;;21.25;4.35;;;4.80;99.90;;;;;;5037455;28;20040;-79
2022/01/06 11:50:05;;;;;;;20.45;3.33;;;4.80;99.90;;;;;;5043138;28;20033;-79
2022/01/06 11:52:31;;;;;;;17.08;2.95;;;4.90;99.90;;;;;;5030985;28;20041;-79
2022/01/06 11:54:56;;;;;;;17.48;3.22;;;4.90;99.90;;;;;;5016084;28;20068;-79
2022/01/06 11:57:31;;;;;;;14.45;2.80;;;4.90;99.90;;;;;;5014446;28;20048;-79
2022/01/06 11:59:59;;;;;;;15.73;2.53;;;5.00;99.90;;;;;;5033178;28;20132;-79
2022/01/06 12:02:25;;;;;;;14.75;3.05;;;5.00;99.90;;;;;;5016665;28;20064;-79
2022/01/06 12:04:58;;;;;;;10.90;2.60;;;5.10;99.90;;;;;;5034983;28;20052;-79
2022/01/06 12:07:24;;;;;;;14.30;3.13;;;5.10;99.90;;;;;;5018491;28;20051;-79
2022/01/06 12:09:58;;;;;;;14.10;2.95;;;5.20;99.90;;;;;;5033712;28;20485;-79
2022/01/06 12:12:36;;;;;;;14.02;3.40;;;5.20;99.90;;;;;;5035763;28;20041;-79
2022/01/06 12:15:18;;;;;;;21.00;2.65;;;5.20;99.90;;;;;;5047666;28;20101;-79
2022/01/06 12:17:52;;;;;;;13.00;2.90;;;5.30;99.90;;;;;;5020360;28;20703;-79
2022/01/06 12:20:26;;;;;;;17.38;2.70;;;5.30;99.90;;;;;;5033315;28;20371;-79
2022/01/06 12:22:52;;;;;;;15.43;3.05;;;5.30;99.90;;;;;;5030466;28;20123;-79
2022/01/06 12:25:22;;;;;;;12.63;2.28;;;5.30;99.90;;;;;;5032749;28;20391;-79
2022/01/06 12:27:52;;;;;;;15.85;3.53;;;5.40;99.90;;;;;;5033170;28;20086;-79
2022/01/06 12:30:19;;;;;;;18.60;3.55;;;5.40;99.90;;;;;;5032779;28;20179;-79
2022/01/06 12:33:18;;;;;;;9.68;1.85;;;5.40;99.90;;;;;;5032850;28;20037;-79
2022/01/06 12:35:48;;;;;;;12.70;2.58;;;5.50;99.90;;;;;;5033766;28;20049;-79
2022/01/06 12:38:14;;;;;;;17.55;3.33;;;5.50;99.90;;;;;;5029551;28;20049;-79
2022/01/06 12:40:44;;;;;;;15.07;2.47;;;5.50;99.90;;;;;;5013821;28;20061;-79
2022/01/06 12:43:20;;;;;;;13.73;2.78;;;5.50;99.90;;;;;;5049936;28;20044;-79
2022/01/06 12:45:59;;;;;;;16.70;2.55;;;5.60;99.90;;;;;;5033379;28;20029;-79
2022/01/06 12:48:31;;;;;;;13.88;2.80;;;5.60;99.90;;;;;;5034331;28;20037;-79
2022/01/06 12:50:57;;;;;;;15.13;2.50;;;5.60;99.90;;;;;;5036331;28;20047;-79
2022/01/06 12:53:25;;;;;;;16.13;2.30;;;5.70;99.90;;;;;;5035987;28;20038;-79
2022/01/06 12:55:51;;;;;;;18.50;3.13;;;5.70;99.90;;;;;;5037452;28;20119;-79
2022/01/06 12:58:43;;;;;;;11.93;2.75;;;5.70;99.90;;;;;;5020018;28;20186;-79
2022/01/06 13:01:11;;;;;;;10.15;2.65;;;5.80;99.90;;;;;;5031501;28;20045;-79
2022/01/06 13:03:40;;;;;;;14.00;2.42;;;5.70;99.90;;;;;;5032200;28;20053;-79